Newport News Williamsburg International Airport
KPHF : now visible

Airfield :











YOU CAN JOIN US ON...

 
LOGIN :

Register | Disclaimer

   EN    FR    IT 

 









Legend :    VFR   Marginal VFR   IFR   Intensive IFR   Very Intensive IFR
Visi :
Ceiling :
>= 8 km
>= 3000ft
5 to 8 km
1000 to 3000 ft
1500m to 5 km
500 to 1000 ft
800 to 1500m
200 to 500 ft
< 800m
< 200 ft
Symbols :   Thunderstorms  Fog  Heavy snow  Heavy precipitations  Wind > 20 kt






- Airport Elevation : 42 ft
- IATA code : PHF


KPHF - Newport News Williamsburg International

CURRENT METAR :
  • 281554Z 18012KT 10SM FEW016 SCT025 BKN041 28/22 A3010 RMK AO2 SLP191 T02830222

EXPIRED METARs :
  • 281454Z 16015G20KT 10SM SCT013 BKN021 27/22 A3011 RMK AO2 SLP195 60001 T02670217 57002
  • 281442Z 17014G18KT 10SM BKN013 BKN017 BKN060 27/22 A3011 RMK AO2 T02670217
  • 281400Z 17016G19KT 10SM SCT012 OVC018 26/22 A3012 RMK AO2 T02610217
  • 281354Z 16014KT 10SM BKN008 OVC016 26/22 A3012 RMK AO2 SLP197 T02610217
  • 281332Z 17008KT 10SM OVC009 26/22 A3012 RMK AO2 CIG 008V012 T02610222

TAF KPHF
Valid from the 28 at 16:00 until the 29 at 12:00 UTC


281548Z 2816/2912 16015G20KT P6SM VCSH SCT013 BKN021
FM281800 18012G19KT P6SM VCSH BKN035
TEMPO 2818/2821 3SM TSRA BKN020CB
FM282300 17010KT P6SM BKN120
FM290600 18009KT P6SM BKN025
FM290800 18008KT P6SM BKN015
KZDC FIR / North America



MET'MAP, your aeronautical weather chart ! - Copyright ORBIFLY December 2007 - Disclaimer

ORBIFLY MET'MAP TEAM :

Programming & Development : Alexandra Zaïnal
Concept & original design : Baudouin d'Aumeries
Assistance for programming : Marc-Olivier Méhu
Technical & hardware support : Manuel Goepfert

Contact : metmap@orbifly.com




SOURCES & CREDITS :

   NOAA       Earth
Advisory